sensor_id;sensor_type;location;lat;lon;timestamp;temperature;humidity
27376;DHT22;14844;51.302;6.354;2022-12-18T00:01:44;-6.00;99.90
27376;DHT22;14844;51.302;6.354;2022-12-18T00:04:22;-6.10;99.90
27376;DHT22;14844;51.302;6.354;2022-12-18T00:06:48;-6.00;99.90
27376;DHT22;14844;51.302;6.354;2022-12-18T00:09:14;-6.00;99.90
27376;DHT22;14844;51.302;6.354;2022-12-18T00:11:40;-6.00;99.90
27376;DHT22;14844;51.302;6.354;2022-12-18T00:14:05;-6.00;99.90
27376;DHT22;14844;51.302;6.354;2022-12-18T00:16:31;-6.00;99.90
27376;DHT22;14844;51.302;6.354;2022-12-18T00:18:59;-6.00;99.90
27376;DHT22;14844;51.302;6.354;2022-12-18T00:21:25;-6.00;99.90
27376;DHT22;14844;51.302;6.354;2022-12-18T00:23:51;-6.00;99.90
27376;DHT22;14844;51.302;6.354;2022-12-18T00:26:20;-6.00;99.90
27376;DHT22;14844;51.302;6.354;2022-12-18T00:28:46;-6.00;99.90
27376;DHT22;14844;51.302;6.354;2022-12-18T00:31:14;-6.00;99.90
27376;DHT22;14844;51.302;6.354;2022-12-18T00:33:40;-6.00;99.90
27376;DHT22;14844;51.302;6.354;2022-12-18T00:36:12;-5.90;99.90
27376;DHT22;14844;51.302;6.354;2022-12-18T00:38:38;-5.90;99.90
27376;DHT22;14844;51.302;6.354;2022-12-18T00:41:04;-5.90;99.90
27376;DHT22;14844;51.302;6.354;2022-12-18T00:43:30;-5.90;99.90
27376;DHT22;14844;51.302;6.354;2022-12-18T00:45:59;-5.90;99.90
27376;DHT22;14844;51.302;6.354;2022-12-18T00:48:24;-5.90;99.90
27376;DHT22;14844;51.302;6.354;2022-12-18T00:50:50;-5.90;99.90
27376;DHT22;14844;51.302;6.354;2022-12-18T00:53:16;-5.90;99.90
27376;DHT22;14844;51.302;6.354;2022-12-18T00:55:42;-5.90;99.90
27376;DHT22;14844;51.302;6.354;2022-12-18T00:58:09;-5.90;99.90
27376;DHT22;14844;51.302;6.354;2022-12-18T01:00:35;-5.90;99.90
27376;DHT22;14844;51.302;6.354;2022-12-18T01:03:01;-5.90;99.90
27376;DHT22;14844;51.302;6.354;2022-12-18T01:05:27;-6.00;99.90
27376;DHT22;14844;51.302;6.354;2022-12-18T01:07:53;-6.00;99.90
27376;DHT22;14844;51.302;6.354;2022-12-18T01:10:18;-6.00;99.90
27376;DHT22;14844;51.302;6.354;2022-12-18T01:12:44;-6.00;99.90
27376;DHT22;14844;51.302;6.354;2022-12-18T01:15:11;-6.00;99.90
27376;DHT22;14844;51.302;6.354;2022-12-18T01:17:37;-5.90;99.90
27376;DHT22;14844;51.302;6.354;2022-12-18T01:20:03;-6.00;99.90
27376;DHT22;14844;51.302;6.354;2022-12-18T01:22:29;-6.10;99.90
27376;DHT22;14844;51.302;6.354;2022-12-18T01:24:54;-6.10;99.90
27376;DHT22;14844;51.302;6.354;2022-12-18T01:27:20;-6.10;99.90
27376;DHT22;14844;51.302;6.354;2022-12-18T01:29:45;-6.00;99.90
27376;DHT22;14844;51.302;6.354;2022-12-18T01:32:11;-6.00;99.90
27376;DHT22;14844;51.302;6.354;2022-12-18T01:34:37;-6.00;99.90
27376;DHT22;14844;51.302;6.354;2022-12-18T01:37:04;-6.00;99.90
27376;DHT22;14844;51.302;6.354;2022-12-18T01:39:31;-6.00;99.90
27376;DHT22;14844;51.302;6.354;2022-12-18T01:42:02;-6.00;99.90
27376;DHT22;14844;51.302;6.354;2022-12-18T01:49:46;-6.00;99.90
27376;DHT22;14844;51.302;6.354;2022-12-18T01:52:11;-6.00;99.90
27376;DHT22;14844;51.302;6.354;2022-12-18T01:54:37;-6.00;99.90
27376;DHT22;14844;51.302;6.354;2022-12-18T01:57:03;-6.10;99.90
27376;DHT22;14844;51.302;6.354;2022-12-18T01:59:30;-6.10;99.90
27376;DHT22;14844;51.302;6.354;2022-12-18T02:01:56;-6.00;99.90
27376;DHT22;14844;51.302;6.354;2022-12-18T02:04:24;-6.00;99.90
27376;DHT22;14844;51.302;6.354;2022-12-18T02:07:05;-6.00;99.90
27376;DHT22;14844;51.302;6.354;2022-12-18T02:09:36;-6.10;99.90
27376;DHT22;14844;51.302;6.354;2022-12-18T02:12:20;-6.10;99.90
27376;DHT22;14844;51.302;6.354;2022-12-18T02:14:58;-6.00;99.90
27376;DHT22;14844;51.302;6.354;2022-12-18T02:17:52;-6.00;99.90
27376;DHT22;14844;51.302;6.354;2022-12-18T02:20:24;-6.00;99.90
27376;DHT22;14844;51.302;6.354;2022-12-18T02:26:26;-5.90;99.90
27376;DHT22;14844;51.302;6.354;2022-12-18T02:29:00;-5.90;99.90
27376;DHT22;14844;51.302;6.354;2022-12-18T02:31:30;-5.80;99.90
27376;DHT22;14844;51.302;6.354;2022-12-18T02:33:59;-5.80;99.90
27376;DHT22;14844;51.302;6.354;2022-12-18T02:36:27;-5.90;99.90
27376;DHT22;14844;51.302;6.354;2022-12-18T02:38:54;-5.80;99.90
27376;DHT22;14844;51.302;6.354;2022-12-18T02:41:21;-5.80;99.90
27376;DHT22;14844;51.302;6.354;2022-12-18T02:43:49;-5.70;99.90
27376;DHT22;14844;51.302;6.354;2022-12-18T02:46:27;-5.70;99.90
27376;DHT22;14844;51.302;6.354;2022-12-18T02:54:10;-5.70;99.90
27376;DHT22;14844;51.302;6.354;2022-12-18T02:56:48;-5.70;99.90
27376;DHT22;14844;51.302;6.354;2022-12-18T02:59:19;-5.60;99.90
27376;DHT22;14844;51.302;6.354;2022-12-18T03:04:37;-5.70;99.90
27376;DHT22;14844;51.302;6.354;2022-12-18T03:07:12;-5.70;99.90
27376;DHT22;14844;51.302;6.354;2022-12-18T03:09:44;-5.60;99.90
27376;DHT22;14844;51.302;6.354;2022-12-18T03:12:21;-5.60;99.90
27376;DHT22;14844;51.302;6.354;2022-12-18T03:15:13;-5.60;99.90
27376;DHT22;14844;51.302;6.354;2022-12-18T03:17:40;-5.70;99.90
27376;DHT22;14844;51.302;6.354;2022-12-18T03:20:14;-5.70;99.90
27376;DHT22;14844;51.302;6.354;2022-12-18T03:22:42;-5.70;99.90
27376;DHT22;14844;51.302;6.354;2022-12-18T03:25:13;-5.70;99.90
27376;DHT22;14844;51.302;6.354;2022-12-18T03:27:42;-5.70;99.90
27376;DHT22;14844;51.302;6.354;2022-12-18T03:30:12;-5.70;99.90
27376;DHT22;14844;51.302;6.354;2022-12-18T03:32:47;-5.70;99.90
27376;DHT22;14844;51.302;6.354;2022-12-18T03:35:18;-5.70;99.90
27376;DHT22;14844;51.302;6.354;2022-12-18T03:37:45;-5.60;99.90
27376;DHT22;14844;51.302;6.354;2022-12-18T03:40:11;-5.60;99.90
27376;DHT22;14844;51.302;6.354;2022-12-18T03:42:52;-5.60;99.90
27376;DHT22;14844;51.302;6.354;2022-12-18T03:45:25;-5.60;99.90
27376;DHT22;14844;51.302;6.354;2022-12-18T03:48:10;-5.60;99.90
27376;DHT22;14844;51.302;6.354;2022-12-18T03:50:49;-5.60;99.90
27376;DHT22;14844;51.302;6.354;2022-12-18T03:53:28;-5.60;99.90
27376;DHT22;14844;51.302;6.354;2022-12-18T03:55:55;-5.60;99.90
27376;DHT22;14844;51.302;6.354;2022-12-18T03:58:24;-5.50;99.90
27376;DHT22;14844;51.302;6.354;2022-12-18T04:00:52;-5.40;99.90
27376;DHT22;14844;51.302;6.354;2022-12-18T04:03:20;-5.40;99.90
27376;DHT22;14844;51.302;6.354;2022-12-18T04:05:48;-5.40;99.90
27376;DHT22;14844;51.302;6.354;2022-12-18T04:08:14;-5.30;99.90
27376;DHT22;14844;51.302;6.354;2022-12-18T04:10:40;-5.40;99.90
27376;DHT22;14844;51.302;6.354;2022-12-18T04:13:05;-5.40;99.90
27376;DHT22;14844;51.302;6.354;2022-12-18T04:15:34;-5.50;99.90
27376;DHT22;14844;51.302;6.354;2022-12-18T04:18:00;-5.50;99.90
27376;DHT22;14844;51.302;6.354;2022-12-18T04:20:26;-5.40;99.90
27376;DHT22;14844;51.302;6.354;2022-12-18T04:22:51;-5.40;99.90
27376;DHT22;14844;51.302;6.354;2022-12-18T04:25:17;-5.40;99.90
27376;DHT22;14844;51.302;6.354;2022-12-18T04:27:42;-5.40;99.90
27376;DHT22;14844;51.302;6.354;2022-12-18T04:30:08;-5.30;99.90
27376;DHT22;14844;51.302;6.354;2022-12-18T04:32:34;-5.40;99.90
27376;DHT22;14844;51.302;6.354;2022-12-18T04:35:00;-5.40;99.90
27376;DHT22;14844;51.302;6.354;2022-12-18T04:37:25;-5.40;99.90
27376;DHT22;14844;51.302;6.354;2022-12-18T04:39:51;-5.40;99.90
27376;DHT22;14844;51.302;6.354;2022-12-18T04:42:16;-5.50;99.90
27376;DHT22;14844;51.302;6.354;2022-12-18T04:44:42;-5.50;99.90
27376;DHT22;14844;51.302;6.354;2022-12-18T04:47:07;-5.50;99.90
27376;DHT22;14844;51.302;6.354;2022-12-18T04:49:33;-5.50;99.90
27376;DHT22;14844;51.302;6.354;2022-12-18T04:51:58;-5.50;99.90
27376;DHT22;14844;51.302;6.354;2022-12-18T04:54:24;-5.50;99.90
27376;DHT22;14844;51.302;6.354;2022-12-18T04:56:50;-5.50;99.90
27376;DHT22;14844;51.302;6.354;2022-12-18T04:59:16;-5.50;99.90
27376;DHT22;14844;51.302;6.354;2022-12-18T05:01:41;-5.40;99.90
27376;DHT22;14844;51.302;6.354;2022-12-18T05:04:07;-5.40;99.90
27376;DHT22;14844;51.302;6.354;2022-12-18T05:06:32;-5.40;99.90
27376;DHT22;14844;51.302;6.354;2022-12-18T05:08:58;-5.40;99.90
27376;DHT22;14844;51.302;6.354;2022-12-18T05:11:23;-5.40;99.90
27376;DHT22;14844;51.302;6.354;2022-12-18T05:13:49;-5.50;99.90
27376;DHT22;14844;51.302;6.354;2022-12-18T05:16:15;-5.40;99.90
27376;DHT22;14844;51.302;6.354;2022-12-18T05:18:40;-5.40;99.90
27376;DHT22;14844;51.302;6.354;2022-12-18T05:21:06;-5.50;99.90
27376;DHT22;14844;51.302;6.354;2022-12-18T05:23:31;-5.50;99.90
27376;DHT22;14844;51.302;6.354;2022-12-18T05:25:59;-5.50;99.90
27376;DHT22;14844;51.302;6.354;2022-12-18T05:28:27;-5.50;99.90
27376;DHT22;14844;51.302;6.354;2022-12-18T05:30:55;-5.40;99.90
27376;DHT22;14844;51.302;6.354;2022-12-18T05:33:23;-5.50;99.90
27376;DHT22;14844;51.302;6.354;2022-12-18T05:35:57;-5.50;99.90
27376;DHT22;14844;51.302;6.354;2022-12-18T05:38:24;-5.60;99.90
27376;DHT22;14844;51.302;6.354;2022-12-18T05:40:51;-5.70;99.90
27376;DHT22;14844;51.302;6.354;2022-12-18T05:43:17;-5.70;99.90
27376;DHT22;14844;51.302;6.354;2022-12-18T05:45:43;-5.70;99.90
27376;DHT22;14844;51.302;6.354;2022-12-18T05:48:13;-5.80;99.90
27376;DHT22;14844;51.302;6.354;2022-12-18T05:50:40;-5.80;99.90
27376;DHT22;14844;51.302;6.354;2022-12-18T05:53:06;-5.80;99.90
27376;DHT22;14844;51.302;6.354;2022-12-18T05:55:36;-5.80;99.90
27376;DHT22;14844;51.302;6.354;2022-12-18T05:58:03;-5.80;99.90
27376;DHT22;14844;51.302;6.354;2022-12-18T06:00:29;-5.80;99.90
27376;DHT22;14844;51.302;6.354;2022-12-18T06:02:55;-5.80;99.90
27376;DHT22;14844;51.302;6.354;2022-12-18T06:05:21;-5.60;99.90
27376;DHT22;14844;51.302;6.354;2022-12-18T06:07:46;-5.60;99.90
27376;DHT22;14844;51.302;6.354;2022-12-18T06:10:12;-5.60;99.90
27376;DHT22;14844;51.302;6.354;2022-12-18T06:12:37;-5.60;99.90
27376;DHT22;14844;51.302;6.354;2022-12-18T06:15:03;-5.50;99.90
27376;DHT22;14844;51.302;6.354;2022-12-18T06:17:30;-5.40;99.90
27376;DHT22;14844;51.302;6.354;2022-12-18T06:19:56;-5.40;99.90
27376;DHT22;14844;51.302;6.354;2022-12-18T06:22:22;-5.30;99.90
27376;DHT22;14844;51.302;6.354;2022-12-18T06:24:47;-5.40;99.90
27376;DHT22;14844;51.302;6.354;2022-12-18T06:27:13;-5.30;99.90
27376;DHT22;14844;51.302;6.354;2022-12-18T06:29:39;-5.40;99.90
27376;DHT22;14844;51.302;6.354;2022-12-18T06:32:05;-5.40;99.90
27376;DHT22;14844;51.302;6.354;2022-12-18T06:34:31;-5.40;99.90
27376;DHT22;14844;51.302;6.354;2022-12-18T06:36:57;-5.50;99.90
27376;DHT22;14844;51.302;6.354;2022-12-18T06:39:23;-5.40;99.90
27376;DHT22;14844;51.302;6.354;2022-12-18T06:41:48;-5.50;99.90
27376;DHT22;14844;51.302;6.354;2022-12-18T06:44:14;-5.40;99.90
27376;DHT22;14844;51.302;6.354;2022-12-18T06:46:39;-5.40;99.90
27376;DHT22;14844;51.302;6.354;2022-12-18T06:49:05;-5.40;99.90
27376;DHT22;14844;51.302;6.354;2022-12-18T06:51:30;-5.50;99.90
27376;DHT22;14844;51.302;6.354;2022-12-18T06:53:56;-5.40;99.90
27376;DHT22;14844;51.302;6.354;2022-12-18T06:56:22;-5.40;99.90
27376;DHT22;14844;51.302;6.354;2022-12-18T06:58:47;-5.50;99.90
27376;DHT22;14844;51.302;6.354;2022-12-18T07:01:13;-5.50;99.90
27376;DHT22;14844;51.302;6.354;2022-12-18T07:03:40;-5.50;99.90
27376;DHT22;14844;51.302;6.354;2022-12-18T07:06:06;-5.50;99.90
27376;DHT22;14844;51.302;6.354;2022-12-18T07:08:33;-5.50;99.90
27376;DHT22;14844;51.302;6.354;2022-12-18T07:10:59;-5.50;99.90
27376;DHT22;14844;51.302;6.354;2022-12-18T07:13:24;-5.50;99.90
27376;DHT22;14844;51.302;6.354;2022-12-18T07:15:50;-5.40;99.90
27376;DHT22;14844;51.302;6.354;2022-12-18T07:18:16;-5.30;99.90
27376;DHT22;14844;51.302;6.354;2022-12-18T07:20:41;-5.30;99.90
27376;DHT22;14844;51.302;6.354;2022-12-18T07:23:07;-5.20;99.90
27376;DHT22;14844;51.302;6.354;2022-12-18T07:25:36;-5.20;99.90
27376;DHT22;14844;51.302;6.354;2022-12-18T07:28:02;-5.20;99.90
27376;DHT22;14844;51.302;6.354;2022-12-18T07:30:28;-5.20;99.90
27376;DHT22;14844;51.302;6.354;2022-12-18T07:32:53;-5.10;99.90
27376;DHT22;14844;51.302;6.354;2022-12-18T07:35:19;-5.10;99.90
27376;DHT22;14844;51.302;6.354;2022-12-18T07:37:44;-5.10;99.90
27376;DHT22;14844;51.302;6.354;2022-12-18T07:40:11;-5.10;99.90
27376;DHT22;14844;51.302;6.354;2022-12-18T07:42:36;-5.00;99.90
27376;DHT22;14844;51.302;6.354;2022-12-18T07:45:02;-4.90;99.90
27376;DHT22;14844;51.302;6.354;2022-12-18T07:47:28;-4.80;99.90
27376;DHT22;14844;51.302;6.354;2022-12-18T07:49:57;-4.70;99.90
27376;DHT22;14844;51.302;6.354;2022-12-18T07:52:22;-4.70;99.90
27376;DHT22;14844;51.302;6.354;2022-12-18T07:54:48;-4.60;99.90
27376;DHT22;14844;51.302;6.354;2022-12-18T07:57:15;-4.60;99.90
27376;DHT22;14844;51.302;6.354;2022-12-18T07:59:41;-4.60;99.90
27376;DHT22;14844;51.302;6.354;2022-12-18T08:02:07;-4.50;99.90
27376;DHT22;14844;51.302;6.354;2022-12-18T08:04:35;-4.40;99.90
27376;DHT22;14844;51.302;6.354;2022-12-18T08:07:01;-4.40;99.90
27376;DHT22;14844;51.302;6.354;2022-12-18T08:09:26;-4.30;99.90
27376;DHT22;14844;51.302;6.354;2022-12-18T08:11:52;-4.20;99.90
27376;DHT22;14844;51.302;6.354;2022-12-18T08:14:17;-4.10;99.90
27376;DHT22;14844;51.302;6.354;2022-12-18T08:16:43;-4.00;99.90
27376;DHT22;14844;51.302;6.354;2022-12-18T08:19:09;-3.90;99.90
27376;DHT22;14844;51.302;6.354;2022-12-18T08:21:35;-3.80;99.90
27376;DHT22;14844;51.302;6.354;2022-12-18T08:24:01;-3.70;99.90
27376;DHT22;14844;51.302;6.354;2022-12-18T08:26:29;-3.60;99.90
27376;DHT22;14844;51.302;6.354;2022-12-18T08:28:56;-3.50;99.90
27376;DHT22;14844;51.302;6.354;2022-12-18T08:31:23;-3.40;99.90
27376;DHT22;14844;51.302;6.354;2022-12-18T08:33:49;-3.40;99.90
27376;DHT22;14844;51.302;6.354;2022-12-18T08:36:16;-3.40;99.90
27376;DHT22;14844;51.302;6.354;2022-12-18T08:38:41;-3.30;99.90
27376;DHT22;14844;51.302;6.354;2022-12-18T08:41:11;-3.20;99.90
27376;DHT22;14844;51.302;6.354;2022-12-18T08:43:37;-3.10;99.90
27376;DHT22;14844;51.302;6.354;2022-12-18T08:46:23;-3.00;99.90
27376;DHT22;14844;51.302;6.354;2022-12-18T08:48:53;-3.00;99.90
27376;DHT22;14844;51.302;6.354;2022-12-18T08:51:20;-2.90;99.90
27376;DHT22;14844;51.302;6.354;2022-12-18T08:53:46;-2.80;99.90
27376;DHT22;14844;51.302;6.354;2022-12-18T08:56:13;-2.70;99.90
27376;DHT22;14844;51.302;6.354;2022-12-18T08:58:39;-2.60;99.90
27376;DHT22;14844;51.302;6.354;2022-12-18T09:01:08;-2.60;99.90
27376;DHT22;14844;51.302;6.354;2022-12-18T09:03:34;-2.60;99.90
27376;DHT22;14844;51.302;6.354;2022-12-18T09:06:00;-2.60;99.90
27376;DHT22;14844;51.302;6.354;2022-12-18T09:08:26;-2.60;99.90
27376;DHT22;14844;51.302;6.354;2022-12-18T09:10:52;-2.60;99.90
27376;DHT22;14844;51.302;6.354;2022-12-18T09:13:18;-2.60;99.90
27376;DHT22;14844;51.302;6.354;2022-12-18T09:15:49;-2.50;99.90
27376;DHT22;14844;51.302;6.354;2022-12-18T09:18:18;-2.40;99.90
27376;DHT22;14844;51.302;6.354;2022-12-18T09:20:44;-2.30;99.90
27376;DHT22;14844;51.302;6.354;2022-12-18T09:23:11;-2.20;99.90
27376;DHT22;14844;51.302;6.354;2022-12-18T09:25:38;-2.10;99.90
27376;DHT22;14844;51.302;6.354;2022-12-18T09:28:06;-2.10;99.90
27376;DHT22;14844;51.302;6.354;2022-12-18T09:30:32;-2.00;99.90
27376;DHT22;14844;51.302;6.354;2022-12-18T09:32:59;-1.90;99.90
27376;DHT22;14844;51.302;6.354;2022-12-18T09:35:25;-1.90;99.90
27376;DHT22;14844;51.302;6.354;2022-12-18T09:37:54;-1.80;99.90
27376;DHT22;14844;51.302;6.354;2022-12-18T09:40:25;-1.80;99.90
27376;DHT22;14844;51.302;6.354;2022-12-18T09:42:57;-1.70;99.90
27376;DHT22;14844;51.302;6.354;2022-12-18T09:45:25;-1.70;99.90
27376;DHT22;14844;51.302;6.354;2022-12-18T09:47:54;-1.60;99.90
27376;DHT22;14844;51.302;6.354;2022-12-18T09:50:28;-1.60;99.90
27376;DHT22;14844;51.302;6.354;2022-12-18T09:52:57;-1.60;99.90
27376;DHT22;14844;51.302;6.354;2022-12-18T09:55:40;-1.50;99.90
27376;DHT22;14844;51.302;6.354;2022-12-18T10:00:37;-1.40;99.90
27376;DHT22;14844;51.302;6.354;2022-12-18T10:03:15;-1.30;99.90
27376;DHT22;14844;51.302;6.354;2022-12-18T10:06:02;-1.30;99.90
27376;DHT22;14844;51.302;6.354;2022-12-18T10:11:34;-1.10;99.90
27376;DHT22;14844;51.302;6.354;2022-12-18T10:14:33;-1.00;99.90
27376;DHT22;14844;51.302;6.354;2022-12-18T10:17:15;-0.90;99.90
27376;DHT22;14844;51.302;6.354;2022-12-18T10:19:46;-0.90;99.90
27376;DHT22;14844;51.302;6.354;2022-12-18T10:25:34;-0.60;99.90
27376;DHT22;14844;51.302;6.354;2022-12-18T10:28:10;-0.50;99.90
27376;DHT22;14844;51.302;6.354;2022-12-18T10:30:39;-0.50;99.90
27376;DHT22;14844;51.302;6.354;2022-12-18T10:33:08;-0.50;99.90
27376;DHT22;14844;51.302;6.354;2022-12-18T10:35:36;-0.40;99.90
27376;DHT22;14844;51.302;6.354;2022-12-18T10:43:27;-0.20;99.90
27376;DHT22;14844;51.302;6.354;2022-12-18T10:48:37;-0.10;99.90
27376;DHT22;14844;51.302;6.354;2022-12-18T10:51:08;-0.10;99.90
27376;DHT22;14844;51.302;6.354;2022-12-18T10:53:36;0.10;99.90
27376;DHT22;14844;51.302;6.354;2022-12-18T10:56:03;0.10;99.90
27376;DHT22;14844;51.302;6.354;2022-12-18T10:58:33;0.10;99.90
27376;DHT22;14844;51.302;6.354;2022-12-18T11:01:12;0.20;99.90
27376;DHT22;14844;51.302;6.354;2022-12-18T11:06:22;0.40;99.90
27376;DHT22;14844;51.302;6.354;2022-12-18T11:09:04;0.50;99.90
27376;DHT22;14844;51.302;6.354;2022-12-18T11:11:31;0.60;99.90
27376;DHT22;14844;51.302;6.354;2022-12-18T11:14:04;0.60;99.90
27376;DHT22;14844;51.302;6.354;2022-12-18T11:16:36;0.60;99.90
27376;DHT22;14844;51.302;6.354;2022-12-18T11:19:43;0.60;99.90
27376;DHT22;14844;51.302;6.354;2022-12-18T11:22:21;0.50;99.90
27376;DHT22;14844;51.302;6.354;2022-12-18T11:27:24;0.60;99.90
27376;DHT22;14844;51.302;6.354;2022-12-18T11:29:51;0.60;99.90
27376;DHT22;14844;51.302;6.354;2022-12-18T11:32:30;0.60;99.90
27376;DHT22;14844;51.302;6.354;2022-12-18T11:35:10;0.60;99.90
27376;DHT22;14844;51.302;6.354;2022-12-18T11:37:37;0.60;99.90
27376;DHT22;14844;51.302;6.354;2022-12-18T11:40:15;0.70;99.90
27376;DHT22;14844;51.302;6.354;2022-12-18T11:42:52;0.70;99.90
27376;DHT22;14844;51.302;6.354;2022-12-18T11:45:40;0.60;99.90
27376;DHT22;14844;51.302;6.354;2022-12-18T11:48:24;0.60;99.90
27376;DHT22;14844;51.302;6.354;2022-12-18T11:50:56;0.50;99.90
27376;DHT22;14844;51.302;6.354;2022-12-18T11:53:24;0.50;99.90
27376;DHT22;14844;51.302;6.354;2022-12-18T11:56:01;0.50;99.90
27376;DHT22;14844;51.302;6.354;2022-12-18T11:58:30;0.50;99.90
27376;DHT22;14844;51.302;6.354;2022-12-18T12:11:50;0.70;99.90
27376;DHT22;14844;51.302;6.354;2022-12-18T12:14:25;0.70;99.90
27376;DHT22;14844;51.302;6.354;2022-12-18T12:16:59;0.80;99.90
27376;DHT22;14844;51.302;6.354;2022-12-18T12:19:39;0.90;99.90
27376;DHT22;14844;51.302;6.354;2022-12-18T12:22:18;0.90;99.90
27376;DHT22;14844;51.302;6.354;2022-12-18T12:30:33;0.90;99.90
27376;DHT22;14844;51.302;6.354;2022-12-18T12:36:20;1.00;99.90
27376;DHT22;14844;51.302;6.354;2022-12-18T12:38:59;0.90;99.90
27376;DHT22;14844;51.302;6.354;2022-12-18T12:41:30;0.80;99.90
27376;DHT22;14844;51.302;6.354;2022-12-18T12:44:28;0.90;99.90
27376;DHT22;14844;51.302;6.354;2022-12-18T12:47:18;0.80;99.90
27376;DHT22;14844;51.302;6.354;2022-12-18T12:49:47;0.80;99.90
27376;DHT22;14844;51.302;6.354;2022-12-18T12:52:28;0.80;99.90
27376;DHT22;14844;51.302;6.354;2022-12-18T12:54:54;0.70;99.90
27376;DHT22;14844;51.302;6.354;2022-12-18T12:57:45;0.70;99.90
27376;DHT22;14844;51.302;6.354;2022-12-18T13:08:06;0.90;99.90
27376;DHT22;14844;51.302;6.354;2022-12-18T13:10:41;1.00;99.90
27376;DHT22;14844;51.302;6.354;2022-12-18T13:13:14;0.90;99.90
27376;DHT22;14844;51.302;6.354;2022-12-18T13:15:43;0.80;99.90
27376;DHT22;14844;51.302;6.354;2022-12-18T13:25:49;0.80;99.90
27376;DHT22;14844;51.302;6.354;2022-12-18T13:28:16;0.70;99.90
27376;DHT22;14844;51.302;6.354;2022-12-18T13:30:44;0.70;99.90
27376;DHT22;14844;51.302;6.354;2022-12-18T13:38:34;0.60;99.90
27376;DHT22;14844;51.302;6.354;2022-12-18T13:43:41;0.50;99.90
27376;DHT22;14844;51.302;6.354;2022-12-18T13:46:21;0.60;99.90
27376;DHT22;14844;51.302;6.354;2022-12-18T13:49:01;0.50;99.90
27376;DHT22;14844;51.302;6.354;2022-12-18T13:51:27;0.50;99.90
27376;DHT22;14844;51.302;6.354;2022-12-18T13:53:54;0.40;99.90
27376;DHT22;14844;51.302;6.354;2022-12-18T13:56:25;0.40;99.90
27376;DHT22;14844;51.302;6.354;2022-12-18T13:59:24;0.30;99.90
27376;DHT22;14844;51.302;6.354;2022-12-18T14:04:27;0.20;99.90
27376;DHT22;14844;51.302;6.354;2022-12-18T14:07:03;0.30;99.90
27376;DHT22;14844;51.302;6.354;2022-12-18T14:09:31;0.30;99.90
27376;DHT22;14844;51.302;6.354;2022-12-18T14:12:00;0.30;99.90
27376;DHT22;14844;51.302;6.354;2022-12-18T14:14:46;0.20;99.90
27376;DHT22;14844;51.302;6.354;2022-12-18T14:17:13;0.20;99.90
27376;DHT22;14844;51.302;6.354;2022-12-18T14:19:47;0.20;99.90
27376;DHT22;14844;51.302;6.354;2022-12-18T14:22:20;0.20;99.90
27376;DHT22;14844;51.302;6.354;2022-12-18T14:24:46;0.20;99.90
27376;DHT22;14844;51.302;6.354;2022-12-18T14:27:20;0.20;99.90
27376;DHT22;14844;51.302;6.354;2022-12-18T14:29:46;0.10;99.90
27376;DHT22;14844;51.302;6.354;2022-12-18T14:32:17;0.10;99.90
27376;DHT22;14844;51.302;6.354;2022-12-18T14:34:44;0.10;99.90
27376;DHT22;14844;51.302;6.354;2022-12-18T14:37:11;0.10;99.90
27376;DHT22;14844;51.302;6.354;2022-12-18T14:39:38;0.10;99.90
27376;DHT22;14844;51.302;6.354;2022-12-18T14:42:04;0.10;99.90
27376;DHT22;14844;51.302;6.354;2022-12-18T14:44:43;0.10;99.90
27376;DHT22;14844;51.302;6.354;2022-12-18T14:47:15;0.10;99.90
27376;DHT22;14844;51.302;6.354;2022-12-18T14:49:41;0.10;99.90
27376;DHT22;14844;51.302;6.354;2022-12-18T14:52:28;0.00;99.90
27376;DHT22;14844;51.302;6.354;2022-12-18T14:54:54;0.00;99.90
27376;DHT22;14844;51.302;6.354;2022-12-18T14:57:34;0.00;99.90
27376;DHT22;14844;51.302;6.354;2022-12-18T15:00:15;-0.10;99.90
27376;DHT22;14844;51.302;6.354;2022-12-18T15:02:42;-0.10;99.90
27376;DHT22;14844;51.302;6.354;2022-12-18T15:07:51;-0.20;99.90
27376;DHT22;14844;51.302;6.354;2022-12-18T15:10:22;-0.10;99.90
27376;DHT22;14844;51.302;6.354;2022-12-18T15:13:16;-0.10;99.90
27376;DHT22;14844;51.302;6.354;2022-12-18T15:20:44;-0.20;99.90
27376;DHT22;14844;51.302;6.354;2022-12-18T15:23:28;-0.20;99.90
27376;DHT22;14844;51.302;6.354;2022-12-18T15:28:35;-0.20;99.90
27376;DHT22;14844;51.302;6.354;2022-12-18T15:31:06;-0.20;99.90
27376;DHT22;14844;51.302;6.354;2022-12-18T15:33:37;-0.20;99.90
27376;DHT22;14844;51.302;6.354;2022-12-18T15:36:04;-0.20;99.90
27376;DHT22;14844;51.302;6.354;2022-12-18T15:38:31;-0.20;99.90
27376;DHT22;14844;51.302;6.354;2022-12-18T15:40:57;-0.20;99.90
27376;DHT22;14844;51.302;6.354;2022-12-18T15:43:24;-0.30;99.90
27376;DHT22;14844;51.302;6.354;2022-12-18T15:46:17;-0.30;99.90
27376;DHT22;14844;51.302;6.354;2022-12-18T15:51:18;-0.30;99.90
27376;DHT22;14844;51.302;6.354;2022-12-18T15:53:46;-0.30;99.90
27376;DHT22;14844;51.302;6.354;2022-12-18T15:56:13;-0.30;99.90
27376;DHT22;14844;51.302;6.354;2022-12-18T15:58:58;-0.30;99.90
27376;DHT22;14844;51.302;6.354;2022-12-18T16:01:26;-0.30;99.90
27376;DHT22;14844;51.302;6.354;2022-12-18T16:04:11;-0.30;99.90
27376;DHT22;14844;51.302;6.354;2022-12-18T16:06:37;-0.30;99.90
27376;DHT22;14844;51.302;6.354;2022-12-18T16:09:03;-0.30;99.90
27376;DHT22;14844;51.302;6.354;2022-12-18T16:11:30;-0.30;99.90
27376;DHT22;14844;51.302;6.354;2022-12-18T16:16:42;-0.30;99.90
27376;DHT22;14844;51.302;6.354;2022-12-18T16:19:07;-0.30;99.90
27376;DHT22;14844;51.302;6.354;2022-12-18T16:21:33;-0.30;99.90
27376;DHT22;14844;51.302;6.354;2022-12-18T16:23:58;-0.30;99.90
27376;DHT22;14844;51.302;6.354;2022-12-18T16:26:24;-0.40;99.90
27376;DHT22;14844;51.302;6.354;2022-12-18T16:28:53;-0.40;99.90
27376;DHT22;14844;51.302;6.354;2022-12-18T16:31:26;-0.30;99.90
27376;DHT22;14844;51.302;6.354;2022-12-18T16:34:28;-0.30;99.90
27376;DHT22;14844;51.302;6.354;2022-12-18T16:36:56;-0.40;99.90
27376;DHT22;14844;51.302;6.354;2022-12-18T16:39:22;-0.30;99.90
27376;DHT22;14844;51.302;6.354;2022-12-18T16:41:48;-0.30;99.90
27376;DHT22;14844;51.302;6.354;2022-12-18T16:44:14;-0.30;99.90
27376;DHT22;14844;51.302;6.354;2022-12-18T16:46:40;-0.30;99.90
27376;DHT22;14844;51.302;6.354;2022-12-18T16:49:09;-0.40;99.90
27376;DHT22;14844;51.302;6.354;2022-12-18T16:51:35;-0.40;99.90
27376;DHT22;14844;51.302;6.354;2022-12-18T16:54:04;-0.40;99.90
27376;DHT22;14844;51.302;6.354;2022-12-18T16:56:30;-0.40;99.90
27376;DHT22;14844;51.302;6.354;2022-12-18T16:58:58;-0.40;99.90
27376;DHT22;14844;51.302;6.354;2022-12-18T17:01:25;-0.40;99.90
27376;DHT22;14844;51.302;6.354;2022-12-18T17:03:56;-0.30;99.90
27376;DHT22;14844;51.302;6.354;2022-12-18T17:06:23;-0.40;99.90
27376;DHT22;14844;51.302;6.354;2022-12-18T17:08:59;-0.30;99.90
27376;DHT22;14844;51.302;6.354;2022-12-18T17:11:26;-0.30;99.90
27376;DHT22;14844;51.302;6.354;2022-12-18T17:13:52;-0.40;99.90
27376;DHT22;14844;51.302;6.354;2022-12-18T17:16:20;-0.30;99.90
27376;DHT22;14844;51.302;6.354;2022-12-18T17:18:46;-0.40;99.90
27376;DHT22;14844;51.302;6.354;2022-12-18T17:21:12;-0.40;99.90
27376;DHT22;14844;51.302;6.354;2022-12-18T17:23:40;-0.30;99.90
27376;DHT22;14844;51.302;6.354;2022-12-18T17:26:05;-0.40;99.90
27376;DHT22;14844;51.302;6.354;2022-12-18T17:28:33;-0.40;99.90
27376;DHT22;14844;51.302;6.354;2022-12-18T17:31:12;-0.30;99.90